createdAt,value
2022-10-31T00:00:48.305Z,9.98
2022-10-31T00:03:16.615Z,10.27
2022-10-31T00:05:46.007Z,10.27
2022-10-31T00:08:13.764Z,11.50
2022-10-31T00:10:43.820Z,11.27
2022-10-31T00:13:12.565Z,10.75
2022-10-31T00:15:41.770Z,12.52
2022-10-31T00:18:11.281Z,11.48
2022-10-31T00:20:39.444Z,13.07
2022-10-31T00:23:08.357Z,13.88
2022-10-31T00:25:37.630Z,13.07
2022-10-31T00:28:07.966Z,14.85
2022-10-31T00:30:36.006Z,13.45
2022-10-31T00:33:06.105Z,14.45
2022-10-31T00:35:34.225Z,14.35
2022-10-31T00:38:02.333Z,15.18
2022-10-31T00:40:30.069Z,14.75
2022-10-31T00:42:58.344Z,14.52
2022-10-31T00:45:27.645Z,15.43
2022-10-31T00:47:55.403Z,15.35
2022-10-31T00:50:23.257Z,15.90
2022-10-31T00:52:51.043Z,14.68
2022-10-31T00:55:18.800Z,13.95
2022-10-31T00:57:48.497Z,15.13
2022-10-31T01:00:17.255Z,15.80
2022-10-31T01:02:46.774Z,14.77
2022-10-31T01:05:14.928Z,15.43
2022-10-31T01:07:43.849Z,14.75
2022-10-31T01:10:12.264Z,14.93
2022-10-31T01:12:40.482Z,18.05
2022-10-31T01:15:09.670Z,18.67
2022-10-31T01:17:37.460Z,18.48
2022-10-31T01:20:08.698Z,17.20
2022-10-31T01:22:36.754Z,17.70
2022-10-31T01:25:05.536Z,17.38
2022-10-31T01:27:33.403Z,17.08
2022-10-31T01:30:01.205Z,14.52
2022-10-31T01:32:29.757Z,16.70
2022-10-31T01:34:57.528Z,15.52
2022-10-31T01:37:26.715Z,15.50
2022-10-31T01:39:55.542Z,14.25
2022-10-31T01:42:24.663Z,13.68
2022-10-31T01:44:58.902Z,15.10
2022-10-31T01:47:45.126Z,15.75
2022-10-31T01:50:25.006Z,16.60
2022-10-31T01:52:54.841Z,15.70
2022-10-31T01:55:30.337Z,16.83
2022-10-31T01:58:03.994Z,18.55
2022-10-31T02:00:32.399Z,18.77
2022-10-31T02:03:01.218Z,17.00
2022-10-31T02:05:32.279Z,18.95
2022-10-31T02:08:07.362Z,17.15
2022-10-31T02:10:37.535Z,15.55
2022-10-31T02:13:07.069Z,15.15
2022-10-31T02:15:39.544Z,14.70
2022-10-31T02:18:08.405Z,15.80
2022-10-31T02:20:46.674Z,15.57
2022-10-31T02:23:42.998Z,14.23
2022-10-31T02:26:41.505Z,13.88
2022-10-31T02:29:40.253Z,15.38
2022-10-31T02:32:15.554Z,15.38
2022-10-31T02:34:53.247Z,18.20
2022-10-31T02:37:27.720Z,17.15
2022-10-31T02:40:01.122Z,15.32
2022-10-31T02:42:52.160Z,17.38
2022-10-31T02:45:26.214Z,18.13
2022-10-31T02:47:59.807Z,18.35
2022-10-31T02:50:31.757Z,18.80
2022-10-31T02:52:59.512Z,18.88
2022-10-31T02:55:52.078Z,19.90
2022-10-31T02:58:24.308Z,19.13
2022-10-31T03:01:20.465Z,19.85
2022-10-31T03:04:04.579Z,18.98
2022-10-31T03:06:37.023Z,18.25
2022-10-31T03:09:14.801Z,19.67
2022-10-31T03:11:54.928Z,19.65
2022-10-31T03:14:28.765Z,19.38
2022-10-31T03:17:03.576Z,20.17
2022-10-31T03:19:39.129Z,21.55
2022-10-31T03:22:12.234Z,21.17
2022-10-31T03:24:41.667Z,21.85
2022-10-31T03:27:14.709Z,22.58
2022-10-31T03:29:45.529Z,23.48
2022-10-31T03:32:17.187Z,21.25
2022-10-31T03:34:49.651Z,20.77
2022-10-31T03:37:21.281Z,21.13
2022-10-31T03:39:51.337Z,21.58
2022-10-31T03:42:26.318Z,22.08
2022-10-31T03:44:58.514Z,22.42
2022-10-31T03:47:26.457Z,23.55
2022-10-31T03:49:56.020Z,23.90
2022-10-31T03:52:29.233Z,22.77
2022-10-31T03:55:01.613Z,24.30
2022-10-31T03:57:39.781Z,24.13
2022-10-31T04:00:11.433Z,23.05
2022-10-31T04:02:53.040Z,23.80
2022-10-31T04:05:23.385Z,23.17
2022-10-31T04:07:56.470Z,24.52
2022-10-31T04:10:31.909Z,23.63
2022-10-31T04:13:05.576Z,24.90
2022-10-31T04:15:43.080Z,24.10
2022-10-31T04:18:11.063Z,27.42
2022-10-31T04:20:43.585Z,26.90
2022-10-31T04:23:26.544Z,25.60
2022-10-31T04:25:55.100Z,26.00
2022-10-31T04:28:23.270Z,25.90
2022-10-31T04:30:51.207Z,26.10
2022-10-31T04:33:18.993Z,24.55
2022-10-31T04:35:49.728Z,27.77
2022-10-31T04:38:17.802Z,27.38
2022-10-31T04:40:47.169Z,27.52
2022-10-31T04:43:33.424Z,26.67
2022-10-31T04:46:02.260Z,28.77
2022-10-31T04:48:30.694Z,28.15
2022-10-31T04:51:02.982Z,29.10
2022-10-31T04:53:31.012Z,29.73
2022-10-31T04:56:18.767Z,28.55
2022-10-31T04:58:48.941Z,28.75
2022-10-31T05:01:16.924Z,30.65
2022-10-31T05:03:46.427Z,30.35
2022-10-31T05:06:17.381Z,29.85
2022-10-31T05:08:45.130Z,29.65
2022-10-31T05:11:14.039Z,31.85
2022-10-31T05:13:41.856Z,30.05
2022-10-31T05:16:15.278Z,29.92
2022-10-31T05:19:18.091Z,29.52
2022-10-31T05:22:22.368Z,33.65
2022-10-31T05:24:50.224Z,32.58
2022-10-31T05:27:18.042Z,28.77
2022-10-31T05:29:45.809Z,29.63
2022-10-31T05:32:13.555Z,27.08
2022-10-31T05:35:12.253Z,34.72
2022-10-31T05:38:04.236Z,27.38
2022-10-31T05:40:32.530Z,32.83
2022-10-31T05:43:00.822Z,26.75
2022-10-31T05:45:29.567Z,28.40
2022-10-31T05:48:03.367Z,30.40
2022-10-31T05:50:51.868Z,28.73
2022-10-31T05:53:20.995Z,28.83
2022-10-31T05:55:48.928Z,28.25
2022-10-31T05:58:20.803Z,29.38
2022-10-31T06:01:00.602Z,30.40
2022-10-31T06:03:28.382Z,29.90
2022-10-31T06:06:01.300Z,27.73
2022-10-31T06:08:35.773Z,28.10
2022-10-31T06:11:06.972Z,27.90
2022-10-31T06:14:07.947Z,26.63
2022-10-31T06:16:50.847Z,26.30
2022-10-31T06:19:38.721Z,25.42
2022-10-31T06:22:06.844Z,24.60
2022-10-31T06:24:36.091Z,24.13
2022-10-31T06:27:22.730Z,23.35
2022-10-31T06:29:50.562Z,23.95
2022-10-31T06:32:29.504Z,22.45
2022-10-31T06:34:57.275Z,22.95
2022-10-31T06:37:25.619Z,21.15
2022-10-31T06:39:57.593Z,21.65
2022-10-31T06:42:25.359Z,21.35
2022-10-31T06:44:53.248Z,21.13
2022-10-31T06:48:15.402Z,21.05
2022-10-31T06:50:58.592Z,20.05
2022-10-31T06:53:27.523Z,20.17
2022-10-31T06:55:59.477Z,21.08
2022-10-31T06:58:27.732Z,21.38
2022-10-31T07:01:02.192Z,22.23
2022-10-31T07:03:30.024Z,22.65
2022-10-31T07:05:58.826Z,22.52
2022-10-31T07:08:26.962Z,20.15
2022-10-31T07:10:57.116Z,21.98
2022-10-31T07:13:27.361Z,20.75
2022-10-31T07:16:11.451Z,20.75
2022-10-31T07:18:39.278Z,19.20
2022-10-31T07:21:07.890Z,20.05
2022-10-31T07:23:35.703Z,21.10
2022-10-31T07:26:26.996Z,20.35
2022-10-31T07:28:56.191Z,20.10
2022-10-31T07:31:26.395Z,19.10
2022-10-31T07:33:56.941Z,19.15
2022-10-31T07:36:27.649Z,17.50
2022-10-31T07:39:00.433Z,18.95
2022-10-31T07:41:28.227Z,17.92
2022-10-31T07:43:57.700Z,19.17
2022-10-31T07:46:31.187Z,17.90
2022-10-31T07:49:17.300Z,16.35
2022-10-31T07:52:04.061Z,16.33
2022-10-31T07:54:54.937Z,16.65
2022-10-31T07:57:25.314Z,16.00
2022-10-31T07:59:55.031Z,16.70
2022-10-31T08:02:24.451Z,15.38
2022-10-31T08:05:10.877Z,15.25
2022-10-31T08:08:14.696Z,14.77
2022-10-31T08:10:42.996Z,15.02
2022-10-31T08:13:13.315Z,15.23
2022-10-31T08:15:50.840Z,14.75
2022-10-31T08:18:19.391Z,15.05
2022-10-31T08:20:47.349Z,15.15
2022-10-31T08:23:15.373Z,13.80
2022-10-31T08:25:44.180Z,13.23
2022-10-31T08:28:13.636Z,12.90
2022-10-31T08:30:46.793Z,12.80
2022-10-31T08:33:33.357Z,12.05
2022-10-31T08:36:30.585Z,12.52
2022-10-31T08:39:11.591Z,12.07
2022-10-31T08:41:40.592Z,13.38
2022-10-31T08:44:12.557Z,13.00
2022-10-31T08:46:41.741Z,12.38
2022-10-31T08:49:09.567Z,11.88
2022-10-31T08:51:37.343Z,11.10
2022-10-31T08:54:05.265Z,10.90
2022-10-31T08:57:08.660Z,11.43
2022-10-31T08:59:45.449Z,11.63
2022-10-31T09:02:47.752Z,11.15
2022-10-31T09:05:15.795Z,11.02
2022-10-31T09:07:43.645Z,11.60
2022-10-31T09:10:11.524Z,11.95
2022-10-31T09:12:39.971Z,12.05
2022-10-31T09:15:45.813Z,11.38
2022-10-31T09:18:24.934Z,13.07
2022-10-31T09:21:02.621Z,15.05
2022-10-31T09:23:32.856Z,13.95
2022-10-31T09:26:02.529Z,14.05
2022-10-31T09:28:36.860Z,15.43
2022-10-31T09:31:10.788Z,15.35
2022-10-31T09:34:09.113Z,15.02
2022-10-31T09:36:36.942Z,13.93
2022-10-31T09:39:06.384Z,19.75
2022-10-31T09:41:56.265Z,17.25
2022-10-31T09:44:32.953Z,18.52
2022-10-31T09:47:07.491Z,13.65
2022-10-31T09:49:50.894Z,12.10
2022-10-31T09:52:25.136Z,11.13
2022-10-31T09:54:56.869Z,14.30
2022-10-31T09:57:30.641Z,12.65
2022-10-31T09:59:59.616Z,14.27
2022-10-31T10:02:34.801Z,13.32
2022-10-31T10:05:06.576Z,12.60
2022-10-31T10:07:47.349Z,10.43
2022-10-31T10:10:33.344Z,10.60
2022-10-31T10:13:44.926Z,8.30
2022-10-31T10:16:34.149Z,7.97
2022-10-31T10:19:15.475Z,8.95
2022-10-31T10:21:52.680Z,8.82
2022-10-31T10:24:29.721Z,9.20
2022-10-31T10:27:07.592Z,9.27
2022-10-31T10:29:43.972Z,14.73
2022-10-31T10:32:19.632Z,11.65
2022-10-31T10:34:52.553Z,11.32
2022-10-31T10:37:30.248Z,11.90
2022-10-31T10:40:02.758Z,10.88
2022-10-31T10:42:48.172Z,9.50
2022-10-31T10:45:36.377Z,8.13
2022-10-31T10:48:12.368Z,7.28
2022-10-31T10:50:46.606Z,8.27
2022-10-31T10:53:33.541Z,7.30
2022-10-31T10:56:10.878Z,9.20
2022-10-31T10:58:40.776Z,6.82
2022-10-31T11:03:41.823Z,8.65
2022-10-31T11:06:21.738Z,9.32
2022-10-31T11:08:51.353Z,9.13
2022-10-31T11:11:28.575Z,9.32
2022-10-31T11:14:02.390Z,9.98
2022-10-31T11:16:39.567Z,8.43
2022-10-31T11:19:19.617Z,6.78
2022-10-31T11:21:53.725Z,6.93
2022-10-31T11:24:27.032Z,10.05
2022-10-31T11:27:13.435Z,9.25
2022-10-31T11:29:41.268Z,14.05
2022-10-31T11:32:20.757Z,9.82
2022-10-31T11:34:52.082Z,16.38
2022-10-31T11:37:23.580Z,21.60
2022-10-31T11:39:55.256Z,10.10
2022-10-31T11:42:25.263Z,9.80
2022-10-31T11:44:55.143Z,8.65
2022-10-31T11:47:28.356Z,9.38
2022-10-31T11:49:57.541Z,8.35
2022-10-31T11:52:27.759Z,8.98
2022-10-31T11:54:59.402Z,8.88
2022-10-31T11:57:29.848Z,8.85
2022-10-31T12:00:00.094Z,8.40
2022-10-31T12:02:28.238Z,8.55
2022-10-31T12:05:04.918Z,8.00
2022-10-31T12:07:33.107Z,9.63
2022-10-31T12:10:02.227Z,8.23
2022-10-31T12:13:02.654Z,8.57
2022-10-31T12:15:35.524Z,6.70
2022-10-31T12:18:24.853Z,7.20
2022-10-31T12:21:06.943Z,7.93
2022-10-31T12:23:46.819Z,9.65
2022-10-31T12:26:21.264Z,6.30
2022-10-31T12:29:17.724Z,6.97
2022-10-31T12:31:57.733Z,6.38
2022-10-31T12:34:49.191Z,6.00
2022-10-31T12:37:33.155Z,7.60
2022-10-31T12:40:17.897Z,7.78
2022-10-31T12:42:59.384Z,7.18
2022-10-31T12:45:41.280Z,6.38
2022-10-31T12:48:23.372Z,7.07
2022-10-31T12:50:59.258Z,6.90
2022-10-31T12:53:44.334Z,6.60
2022-10-31T12:56:24.112Z,6.72
2022-10-31T12:58:56.589Z,5.53
2022-10-31T13:01:30.474Z,6.57
2022-10-31T13:04:03.917Z,5.85
2022-10-31T13:06:34.859Z,5.90
2022-10-31T13:09:04.802Z,6.05
2022-10-31T13:11:37.424Z,6.50
2022-10-31T13:14:09.961Z,6.25
2022-10-31T13:16:41.074Z,6.47
2022-10-31T13:19:18.079Z,5.70
2022-10-31T13:21:55.852Z,5.82
2022-10-31T13:24:32.270Z,5.20
2022-10-31T13:27:03.125Z,5.45
2022-10-31T13:29:35.384Z,5.47
2022-10-31T13:32:07.302Z,5.55
2022-10-31T13:34:39.893Z,6.40
2022-10-31T13:37:17.623Z,5.78
2022-10-31T13:39:57.743Z,5.47
2022-10-31T13:42:33.477Z,6.75
2022-10-31T13:45:14.339Z,6.30
2022-10-31T13:47:43.639Z,6.32
2022-10-31T13:50:23.128Z,5.10
2022-10-31T13:52:51.002Z,5.72
2022-10-31T13:55:37.971Z,5.97
2022-10-31T13:58:06.620Z,5.53
2022-10-31T14:00:37.361Z,5.40
2022-10-31T14:03:05.509Z,5.65
2022-10-31T14:05:35.265Z,4.78
2022-10-31T14:08:06.398Z,5.95
2022-10-31T14:10:37.188Z,5.22
2022-10-31T14:13:08.043Z,4.80
2022-10-31T14:15:39.996Z,5.10
2022-10-31T14:18:18.944Z,4.75
2022-10-31T14:20:46.879Z,6.25
2022-10-31T14:23:41.083Z,5.50
2022-10-31T14:26:20.051Z,6.30
2022-10-31T14:28:48.989Z,6.88
2022-10-31T14:31:37.280Z,5.93
2022-10-31T14:34:21.189Z,5.43
2022-10-31T14:37:11.493Z,6.72
2022-10-31T14:39:47.048Z,6.93
2022-10-31T14:42:29.728Z,6.65
2022-10-31T14:45:15.455Z,5.70
2022-10-31T14:47:53.974Z,6.40
2022-10-31T14:50:38.214Z,5.95
2022-10-31T14:53:08.421Z,6.18
2022-10-31T14:55:37.115Z,6.93
2022-10-31T14:58:08.104Z,7.30
2022-10-31T15:00:37.877Z,8.15
2022-10-31T15:03:14.248Z,8.52
2022-10-31T15:05:50.183Z,6.97
2022-10-31T15:08:31.204Z,8.23
2022-10-31T15:10:59.098Z,7.93
2022-10-31T15:13:26.899Z,9.15
2022-10-31T15:15:57.233Z,8.68
2022-10-31T15:18:29.154Z,8.40
2022-10-31T15:20:58.528Z,8.25
2022-10-31T15:23:28.851Z,12.65
2022-10-31T15:26:03.716Z,7.90
2022-10-31T15:28:32.688Z,8.38
2022-10-31T15:31:01.951Z,8.45
2022-10-31T15:33:37.909Z,7.97
2022-10-31T15:36:08.078Z,8.40
2022-10-31T15:38:35.939Z,9.70
2022-10-31T15:41:07.861Z,8.40
2022-10-31T15:43:39.101Z,9.00
2022-10-31T15:46:10.968Z,8.95
2022-10-31T15:48:41.546Z,8.60
2022-10-31T15:51:09.447Z,10.20
2022-10-31T15:53:43.806Z,10.25
2022-10-31T15:56:15.017Z,10.32
2022-10-31T15:58:46.833Z,12.15
2022-10-31T16:01:23.784Z,12.95
2022-10-31T16:04:21.290Z,7.50
2022-10-31T16:07:01.306Z,7.80
2022-10-31T16:09:29.448Z,7.13
2022-10-31T16:11:59.897Z,7.30
2022-10-31T16:14:29.680Z,9.27
2022-10-31T16:16:59.683Z,9.48
2022-10-31T16:19:33.148Z,7.68
2022-10-31T16:22:07.583Z,8.70
2022-10-31T16:24:39.354Z,9.75
2022-10-31T16:27:09.215Z,7.50
2022-10-31T16:29:46.842Z,8.63
2022-10-31T16:32:30.937Z,6.95
2022-10-31T16:35:20.396Z,6.78
2022-10-31T16:37:48.192Z,6.97
2022-10-31T16:40:18.634Z,6.88
2022-10-31T16:42:49.769Z,7.00
2022-10-31T16:45:21.121Z,5.60
2022-10-31T16:47:50.275Z,6.55
2022-10-31T16:50:22.301Z,6.22
2022-10-31T16:55:45.698Z,7.93
2022-10-31T16:58:18.264Z,7.22
2022-10-31T17:00:46.495Z,5.93
2022-10-31T17:03:14.291Z,5.82
2022-10-31T17:05:43.662Z,5.50
2022-10-31T17:08:11.432Z,5.25
2022-10-31T17:10:40.004Z,4.93
2022-10-31T17:13:12.261Z,5.75
2022-10-31T17:15:47.942Z,6.53
2022-10-31T17:18:16.984Z,7.55
2022-10-31T17:20:46.601Z,9.35
2022-10-31T17:23:16.361Z,12.88
2022-10-31T17:25:44.944Z,18.90
2022-10-31T17:28:14.249Z,15.85
2022-10-31T17:30:42.886Z,15.93
2022-10-31T17:33:13.282Z,15.52
2022-10-31T17:35:41.036Z,12.82
2022-10-31T17:38:10.180Z,9.82
2022-10-31T17:40:39.151Z,8.10
2022-10-31T17:43:07.278Z,8.43
2022-10-31T17:45:35.039Z,8.18
2022-10-31T17:48:02.783Z,8.05
2022-10-31T17:50:30.524Z,8.77
2022-10-31T17:52:59.726Z,7.40
2022-10-31T17:55:31.573Z,6.97
2022-10-31T17:58:04.269Z,8.10
2022-10-31T18:00:32.082Z,5.93
2022-10-31T18:03:00.355Z,5.80
2022-10-31T18:05:28.350Z,5.43
2022-10-31T18:07:59.395Z,5.88
2022-10-31T18:10:30.026Z,6.13
2022-10-31T18:12:57.901Z,5.53
2022-10-31T18:15:26.159Z,6.20
2022-10-31T18:17:53.902Z,5.97
2022-10-31T18:20:21.680Z,5.95
2022-10-31T18:22:49.469Z,5.95
2022-10-31T18:25:17.353Z,5.60
2022-10-31T18:27:46.467Z,5.40
2022-10-31T18:30:14.364Z,6.60
2022-10-31T18:32:42.179Z,6.78
2022-10-31T18:35:10.032Z,6.65
2022-10-31T18:37:37.817Z,7.43
2022-10-31T18:40:06.715Z,8.02
2022-10-31T18:42:34.473Z,10.43
2022-10-31T18:45:11.512Z,9.30
2022-10-31T18:47:44.905Z,9.38
2022-10-31T18:50:12.663Z,10.05
2022-10-31T18:52:40.539Z,8.73
2022-10-31T18:55:09.220Z,8.65
2022-10-31T18:57:37.460Z,9.02
2022-10-31T19:00:07.897Z,8.55
2022-10-31T19:02:35.694Z,9.02
2022-10-31T19:05:03.598Z,9.57
2022-10-31T19:07:31.892Z,9.95
2022-10-31T19:09:59.662Z,9.27
2022-10-31T19:12:27.444Z,9.50
2022-10-31T19:14:55.297Z,11.05
2022-10-31T19:17:26.346Z,9.43
2022-10-31T19:19:54.085Z,9.18
2022-10-31T19:22:21.838Z,9.63
2022-10-31T19:24:49.680Z,8.27
2022-10-31T19:27:17.428Z,8.50
2022-10-31T19:29:45.178Z,8.10
2022-10-31T19:32:12.956Z,8.57
2022-10-31T19:34:42.025Z,9.80
2022-10-31T19:37:09.764Z,9.77
2022-10-31T19:39:42.807Z,9.68
2022-10-31T19:42:12.098Z,10.50
2022-10-31T19:44:39.852Z,11.45
2022-10-31T19:47:07.637Z,11.20
2022-10-31T19:49:35.424Z,11.90
2022-10-31T19:52:04.590Z,10.75
2022-10-31T19:54:32.428Z,11.18
2022-10-31T19:57:00.137Z,12.90
2022-10-31T19:59:27.983Z,12.50
2022-10-31T20:01:55.959Z,11.88
2022-10-31T20:04:23.880Z,11.90
2022-10-31T20:06:52.042Z,13.15
2022-10-31T20:09:21.252Z,12.63
2022-10-31T20:11:48.995Z,11.93
2022-10-31T20:14:18.417Z,12.48
2022-10-31T20:16:47.024Z,12.15
2022-10-31T20:19:14.997Z,10.50
2022-10-31T20:21:43.206Z,9.40
2022-10-31T20:24:12.160Z,9.68
2022-10-31T20:26:42.045Z,10.13
2022-10-31T20:29:15.662Z,10.10
2022-10-31T20:31:44.655Z,10.25
2022-10-31T20:34:12.485Z,9.52
2022-10-31T20:36:40.199Z,10.23
2022-10-31T20:39:07.978Z,10.20
2022-10-31T20:41:38.786Z,8.93
2022-10-31T20:44:08.157Z,10.70
2022-10-31T20:46:35.905Z,9.23
2022-10-31T20:49:03.683Z,8.45
2022-10-31T20:51:32.167Z,8.07
2022-10-31T20:54:01.095Z,8.52
2022-10-31T20:56:29.924Z,8.52
2022-10-31T20:58:58.691Z,8.25
2022-10-31T21:01:30.205Z,8.65
2022-10-31T21:03:59.150Z,9.38
2022-10-31T21:06:27.972Z,9.00
2022-10-31T21:08:55.827Z,9.10
2022-10-31T21:11:25.427Z,8.75
2022-10-31T21:13:54.144Z,8.90
2022-10-31T21:16:24.374Z,9.82
2022-10-31T21:18:54.766Z,9.25
2022-10-31T21:21:29.163Z,10.50
2022-10-31T21:24:01.660Z,10.27
2022-10-31T21:26:33.287Z,12.60
2022-10-31T21:29:01.785Z,12.48
2022-10-31T21:31:29.621Z,12.77
2022-10-31T21:33:59.163Z,12.52
2022-10-31T21:36:27.248Z,13.00
2022-10-31T21:38:56.392Z,13.98
2022-10-31T21:41:25.680Z,12.82
2022-10-31T21:43:55.154Z,13.32
2022-10-31T21:46:24.683Z,13.88
2022-10-31T21:48:52.773Z,14.50
2022-10-31T21:51:23.539Z,13.85
2022-10-31T21:54:09.631Z,14.25
2022-10-31T21:56:38.304Z,14.60
2022-10-31T21:59:06.382Z,15.15
2022-10-31T22:01:35.146Z,14.00
2022-10-31T22:04:03.247Z,14.63
2022-10-31T22:06:32.929Z,14.35
2022-10-31T22:09:02.562Z,13.52
2022-10-31T22:11:30.846Z,14.57
2022-10-31T22:14:00.685Z,13.40
2022-10-31T22:16:30.600Z,12.48
2022-10-31T22:18:59.968Z,13.20
2022-10-31T22:21:29.089Z,12.05
2022-10-31T22:24:02.056Z,12.93
2022-10-31T22:26:34.883Z,13.50
2022-10-31T22:29:05.109Z,13.02
2022-10-31T22:31:34.321Z,12.85
2022-10-31T22:34:02.296Z,13.68
2022-10-31T22:36:31.346Z,13.60
2022-10-31T22:39:00.977Z,13.30
2022-10-31T22:41:31.283Z,13.88
2022-10-31T22:43:59.524Z,13.55
2022-10-31T22:46:29.160Z,13.52
2022-10-31T22:48:58.703Z,14.82
2022-10-31T22:51:28.304Z,14.70
2022-10-31T22:53:57.001Z,14.18
2022-10-31T22:56:28.343Z,14.65
2022-10-31T22:58:56.785Z,14.13
2022-10-31T23:01:26.745Z,14.77
2022-10-31T23:03:54.601Z,15.40
2022-10-31T23:06:24.437Z,15.32
2022-10-31T23:08:52.982Z,14.38
2022-10-31T23:11:22.228Z,14.80
2022-10-31T23:14:10.509Z,15.20
2022-10-31T23:16:46.097Z,15.40
2022-10-31T23:19:16.432Z,15.45
2022-10-31T23:21:55.817Z,14.38
2022-10-31T23:24:29.822Z,15.15
2022-10-31T23:27:08.227Z,15.95
2022-10-31T23:29:43.226Z,16.17
2022-10-31T23:32:14.140Z,15.65
2022-10-31T23:34:42.066Z,16.02
2022-10-31T23:37:09.917Z,15.95
2022-10-31T23:39:37.890Z,16.80
2022-10-31T23:42:06.143Z,17.10
2022-10-31T23:44:33.886Z,16.55
2022-10-31T23:47:03.088Z,15.77
2022-10-31T23:49:30.850Z,15.77
2022-10-31T23:51:58.812Z,17.83
2022-10-31T23:54:28.121Z,17.00
2022-10-31T23:56:56.179Z,15.93
2022-10-31T23:59:23.925Z,18.85
